createdAt,value
2018-01-08T00:00:15.516Z,0
2018-01-08T00:00:56.112Z,0
2018-01-08T00:01:36.648Z,0
2018-01-08T00:02:17.177Z,0
2018-01-08T00:02:57.641Z,0
2018-01-08T00:03:38.170Z,0
2018-01-08T00:04:18.735Z,0
2018-01-08T00:04:59.222Z,0
2018-01-08T00:05:39.969Z,0
2018-01-08T00:06:20.593Z,0
2018-01-08T00:07:01.104Z,0
2018-01-08T00:07:41.597Z,0
2018-01-08T00:08:22.148Z,0
2018-01-08T00:09:02.694Z,0
2018-01-08T00:09:43.246Z,0
2018-01-08T00:10:23.804Z,0
2018-01-08T00:11:04.347Z,0
2018-01-08T00:11:44.893Z,0
2018-01-08T00:12:25.444Z,0
2018-01-08T00:13:06.000Z,0
2018-01-08T00:13:46.490Z,0
2018-01-08T00:14:29.275Z,0
2018-01-08T00:15:11.012Z,0
2018-01-08T00:15:56.666Z,0
2018-01-08T00:16:37.875Z,0
2018-01-08T00:17:19.582Z,0
2018-01-08T00:18:01.882Z,0
2018-01-08T00:18:42.753Z,0
2018-01-08T00:19:27.389Z,0
2018-01-08T00:30:35.202Z,0
2018-01-08T00:31:25.548Z,0
2018-01-08T00:32:20.456Z,0
2018-01-08T00:33:06.577Z,0
2018-01-08T00:35:48.288Z,0
2018-01-08T00:36:37.275Z,0
2018-01-08T00:37:26.599Z,0
2018-01-08T00:38:16.175Z,0
2018-01-08T00:43:51.833Z,0
2018-01-08T00:44:40.641Z,0
2018-01-08T00:45:29.556Z,0
2018-01-08T00:46:18.207Z,0
2018-01-08T00:47:07.104Z,0
2018-01-08T00:47:55.677Z,0
2018-01-08T00:48:44.881Z,0
2018-01-08T00:49:33.355Z,0
2018-01-08T00:50:22.532Z,0
2018-01-08T00:53:35.192Z,0
2018-01-08T00:54:23.520Z,0
2018-01-08T00:55:12.852Z,0
2018-01-08T00:56:01.361Z,0
2018-01-08T00:56:49.972Z,0
2018-01-08T00:57:41.275Z,0
2018-01-08T01:00:25.459Z,0
2018-01-08T01:01:14.841Z,0
2018-01-08T01:03:42.650Z,0
2018-01-08T01:04:31.281Z,0
2018-01-08T01:07:17.485Z,0
2018-01-08T01:08:06.526Z,0
2018-01-08T01:12:33.170Z,0
2018-01-08T01:13:27.916Z,0
2018-01-08T01:14:17.235Z,0
2018-01-08T01:15:05.912Z,0
2018-01-08T01:15:54.544Z,0
2018-01-08T01:19:05.044Z,0
2018-01-08T01:19:53.953Z,0
2018-01-08T01:22:33.987Z,0
2018-01-08T01:25:22.455Z,0
2018-01-08T01:26:10.972Z,0
2018-01-08T01:26:59.570Z,0
2018-01-08T01:27:48.013Z,0
2018-01-08T01:28:36.750Z,0
2018-01-08T01:29:25.393Z,0
2018-01-08T01:30:12.345Z,0
2018-01-08T01:31:01.211Z,0
2018-01-08T01:31:51.201Z,0
2018-01-08T01:32:39.388Z,0
2018-01-08T01:35:31.292Z,0
2018-01-08T01:36:19.833Z,0
2018-01-08T01:37:08.417Z,0
2018-01-08T01:37:55.544Z,0
2018-01-08T01:38:44.170Z,0
2018-01-08T01:39:29.515Z,0
2018-01-08T01:40:10.057Z,0
2018-01-08T01:40:50.746Z,0
2018-01-08T01:41:31.318Z,0
2018-01-08T01:42:11.898Z,0
2018-01-08T01:42:52.546Z,0
2018-01-08T01:43:33.087Z,0
2018-01-08T01:44:13.624Z,0
2018-01-08T01:44:54.167Z,0
2018-01-08T01:54:39.885Z,0
2018-01-08T01:55:28.642Z,0
2018-01-08T01:56:17.278Z,0
2018-01-08T01:57:06.160Z,0
2018-01-08T01:57:54.922Z,0
2018-01-08T01:58:43.563Z,0
2018-01-08T01:59:32.350Z,0
2018-01-08T02:00:22.789Z,0
2018-01-08T02:01:12.157Z,0
2018-01-08T02:02:02.616Z,0
2018-01-08T02:08:15.142Z,0
2018-01-08T02:18:22.131Z,0
2018-01-08T02:19:11.127Z,0
2018-01-08T02:19:59.703Z,0
2018-01-08T02:20:47.064Z,0
2018-01-08T02:21:35.353Z,0
2018-01-08T02:22:24.184Z,0
2018-01-08T02:23:12.879Z,0
2018-01-08T02:24:01.671Z,0
2018-01-08T02:24:50.599Z,0
2018-01-08T02:25:39.013Z,0
2018-01-08T02:26:28.097Z,0
2018-01-08T02:27:18.661Z,0
2018-01-08T02:28:06.456Z,0
2018-01-08T02:28:55.257Z,0
2018-01-08T02:29:43.715Z,0
2018-01-08T02:32:13.422Z,0
2018-01-08T02:33:01.892Z,0
2018-01-08T02:33:50.568Z,0
2018-01-08T02:34:39.401Z,0
2018-01-08T02:37:09.269Z,0
2018-01-08T02:37:57.824Z,0
2018-01-08T02:38:46.911Z,0
2018-01-08T02:39:35.950Z,0
2018-01-08T02:42:25.946Z,0
2018-01-08T02:43:14.789Z,0
2018-01-08T02:44:03.613Z,0
2018-01-08T02:44:52.561Z,0
2018-01-08T02:45:40.934Z,0
2018-01-08T02:46:30.104Z,0
2018-01-08T02:47:18.625Z,0
2018-01-08T02:48:08.066Z,0
2018-01-08T02:48:57.397Z,0
2018-01-08T02:49:46.061Z,0
2018-01-08T02:50:35.192Z,0
2018-01-08T02:59:26.775Z,0
2018-01-08T03:00:15.895Z,0
2018-01-08T03:01:04.551Z,0
2018-01-08T03:01:54.875Z,0
2018-01-08T03:02:45.619Z,0
2018-01-08T03:05:11.963Z,0
2018-01-08T03:06:02.020Z,0
2018-01-08T03:06:50.864Z,0
2018-01-08T03:07:39.613Z,0
2018-01-08T03:08:28.248Z,0
2018-01-08T03:09:17.027Z,0
2018-01-08T03:10:07.205Z,0
2018-01-08T03:10:56.021Z,0
2018-01-08T03:11:45.084Z,0
2018-01-08T03:12:33.647Z,0
2018-01-08T03:14:12.047Z,0
2018-01-08T03:15:03.025Z,0
2018-01-08T03:17:30.379Z,0
2018-01-08T03:20:25.301Z,0
2018-01-08T03:21:13.774Z,0
2018-01-08T03:22:02.444Z,0
2018-01-08T03:22:51.094Z,0
2018-01-08T03:23:40.271Z,0
2018-01-08T03:24:28.956Z,0
2018-01-08T03:25:17.881Z,0
2018-01-08T03:26:06.617Z,0
2018-01-08T03:26:55.805Z,0
2018-01-08T03:35:36.329Z,0
2018-01-08T03:37:14.044Z,0
2018-01-08T03:38:02.882Z,0
2018-01-08T03:38:51.577Z,0
2018-01-08T03:39:41.302Z,0
2018-01-08T03:40:31.212Z,0
2018-01-08T03:41:21.353Z,0
2018-01-08T03:42:10.218Z,0
2018-01-08T03:43:00.517Z,0
2018-01-08T03:43:50.506Z,0
2018-01-08T03:44:40.307Z,0
2018-01-08T03:45:32.409Z,0
2018-01-08T03:46:21.146Z,0
2018-01-08T03:47:19.235Z,0
2018-01-08T03:49:40.020Z,0
2018-01-08T03:55:09.960Z,0
2018-01-08T03:55:58.930Z,0
2018-01-08T03:56:47.769Z,0
2018-01-08T03:57:36.429Z,0
2018-01-08T04:00:04.074Z,0
2018-01-08T04:00:54.838Z,0
2018-01-08T04:06:39.060Z,0
2018-01-08T04:07:28.155Z,0
2018-01-08T04:08:17.014Z,0
2018-01-08T04:09:05.214Z,0
2018-01-08T04:09:54.023Z,0
2018-01-08T04:10:42.882Z,0
2018-01-08T04:11:31.447Z,0
2018-01-08T04:12:20.113Z,0
2018-01-08T04:13:09.382Z,0
2018-01-08T04:13:57.744Z,0
2018-01-08T04:14:46.841Z,0
2018-01-08T04:15:35.786Z,0
2018-01-08T04:16:24.558Z,0
2018-01-08T04:17:13.022Z,0
2018-01-08T04:18:02.026Z,0
2018-01-08T04:18:50.915Z,0
2018-01-08T04:19:39.555Z,0
2018-01-08T04:20:28.253Z,0
2018-01-08T04:21:20.609Z,0
2018-01-08T04:22:07.056Z,0
2018-01-08T04:22:55.741Z,0
2018-01-08T04:23:44.404Z,0
2018-01-08T04:24:34.158Z,0
2018-01-08T04:25:25.018Z,0
2018-01-08T04:26:13.063Z,0
2018-01-08T04:27:01.902Z,0
2018-01-08T04:27:51.009Z,0
2018-01-08T04:28:40.245Z,0
2018-01-08T04:29:29.392Z,0
2018-01-08T04:30:20.505Z,0
2018-01-08T04:31:09.545Z,0
2018-01-08T04:33:38.925Z,0
2018-01-08T04:38:22.669Z,0
2018-01-08T04:39:13.361Z,0
2018-01-08T04:40:02.333Z,0
2018-01-08T04:40:51.373Z,0
2018-01-08T04:41:39.476Z,0
2018-01-08T04:42:29.431Z,0
2018-01-08T04:43:12.002Z,0
2018-01-08T04:43:52.290Z,0
2018-01-08T04:44:32.852Z,0
2018-01-08T04:45:13.371Z,0
2018-01-08T04:45:54.033Z,0
2018-01-08T04:46:34.486Z,0
2018-01-08T04:47:15.043Z,0
2018-01-08T04:47:55.562Z,0
2018-01-08T04:48:36.052Z,0
2018-01-08T04:49:16.623Z,0
2018-01-08T04:49:57.165Z,0
2018-01-08T04:50:37.699Z,0
2018-01-08T04:51:18.281Z,0
2018-01-08T05:03:41.133Z,0
2018-01-08T05:04:30.581Z,0
2018-01-08T05:05:19.480Z,0
2018-01-08T05:06:09.280Z,0
2018-01-08T05:06:58.110Z,0
2018-01-08T05:07:46.427Z,0
2018-01-08T05:08:35.232Z,0
2018-01-08T05:09:29.390Z,0
2018-01-08T05:10:12.309Z,0
2018-01-08T05:11:04.138Z,0
2018-01-08T05:16:19.239Z,0
2018-01-08T05:17:09.366Z,0
2018-01-08T05:17:57.886Z,0
2018-01-08T05:18:46.717Z,0
2018-01-08T05:19:35.926Z,0
2018-01-08T05:20:24.761Z,0
2018-01-08T05:21:13.853Z,0
2018-01-08T05:22:02.846Z,0
2018-01-08T05:22:51.226Z,0
2018-01-08T05:23:39.112Z,0
2018-01-08T05:24:27.178Z,0
2018-01-08T05:25:19.662Z,0
2018-01-08T05:26:08.031Z,0
2018-01-08T05:26:56.691Z,0
2018-01-08T05:27:46.301Z,0
2018-01-08T05:28:38.450Z,0
2018-01-08T05:29:27.821Z,0
2018-01-08T05:30:16.193Z,0
2018-01-08T05:31:05.507Z,0
2018-01-08T05:31:54.962Z,0
2018-01-08T05:32:43.379Z,0
2018-01-08T05:37:14.246Z,0
2018-01-08T05:38:00.408Z,0
2018-01-08T05:38:49.573Z,0
2018-01-08T05:51:44.529Z,0
2018-01-08T05:52:33.224Z,0
2018-01-08T05:53:22.002Z,0
2018-01-08T05:54:10.477Z,0
2018-01-08T05:54:58.979Z,0
2018-01-08T05:55:43.757Z,0
2018-01-08T05:56:36.526Z,0
2018-01-08T05:57:21.542Z,0
2018-01-08T05:59:43.597Z,0
2018-01-08T06:00:32.855Z,0
2018-01-08T06:01:21.672Z,0
2018-01-08T06:02:10.984Z,0
2018-01-08T06:02:59.993Z,0
2018-01-08T06:03:48.642Z,0
2018-01-08T06:05:27.538Z,0
2018-01-08T06:06:16.288Z,0
2018-01-08T06:07:04.881Z,0
2018-01-08T06:07:54.049Z,0
2018-01-08T06:08:45.823Z,0
2018-01-08T06:09:33.669Z,0
2018-01-08T06:10:15.996Z,0
2018-01-08T06:11:06.287Z,0
2018-01-08T06:11:55.666Z,0
2018-01-08T06:12:43.069Z,0
2018-01-08T06:13:31.331Z,0
2018-01-08T06:14:20.027Z,0
2018-01-08T06:15:00.034Z,0
2018-01-08T06:15:40.657Z,0
2018-01-08T06:16:21.167Z,0
2018-01-08T06:17:01.642Z,0
2018-01-08T06:17:42.175Z,0
2018-01-08T06:18:22.714Z,0
2018-01-08T06:19:03.236Z,0
2018-01-08T06:19:43.760Z,0
2018-01-08T06:20:24.267Z,0
2018-01-08T06:21:04.824Z,0
2018-01-08T06:21:45.348Z,0
2018-01-08T06:22:26.681Z,0
2018-01-08T06:23:07.199Z,0
2018-01-08T06:23:47.711Z,0
2018-01-08T06:24:28.234Z,0
2018-01-08T06:29:27.027Z,0
2018-01-08T06:30:07.605Z,0
2018-01-08T06:30:48.127Z,0
2018-01-08T06:31:29.001Z,0
2018-01-08T06:32:12.865Z,0
2018-01-08T06:32:53.456Z,0
2018-01-08T06:33:33.961Z,0
2018-01-08T06:34:14.568Z,0
2018-01-08T06:34:55.185Z,0
2018-01-08T06:35:35.691Z,0
2018-01-08T06:36:16.425Z,0
2018-01-08T06:36:56.912Z,0
2018-01-08T06:37:37.482Z,0
2018-01-08T06:38:18.090Z,0
2018-01-08T06:38:58.642Z,0
2018-01-08T06:39:39.551Z,0
2018-01-08T06:40:20.001Z,0
2018-01-08T06:41:00.709Z,0
2018-01-08T06:41:41.239Z,0
2018-01-08T06:42:21.787Z,0
2018-01-08T06:43:02.296Z,0
2018-01-08T06:43:42.812Z,0
2018-01-08T06:44:23.361Z,0
2018-01-08T06:45:04.493Z,0
2018-01-08T06:45:44.956Z,0
2018-01-08T06:46:25.445Z,0
2018-01-08T06:47:06.000Z,0
2018-01-08T06:47:46.523Z,0
2018-01-08T06:48:27.070Z,0
2018-01-08T06:49:07.633Z,0
2018-01-08T06:49:48.242Z,0
2018-01-08T06:50:28.789Z,0
2018-01-08T06:51:12.079Z,0
2018-01-08T06:51:53.411Z,0
2018-01-08T06:52:34.149Z,0
2018-01-08T06:53:14.706Z,0
2018-01-08T06:53:55.296Z,0
2018-01-08T06:54:35.821Z,0
2018-01-08T06:55:16.365Z,0
2018-01-08T06:55:56.919Z,0
2018-01-08T06:56:37.423Z,0
2018-01-08T06:57:17.979Z,0
2018-01-08T06:57:58.486Z,0
2018-01-08T06:58:38.998Z,0
2018-01-08T06:59:19.536Z,0
2018-01-08T07:00:00.050Z,0
2018-01-08T07:00:40.603Z,0
2018-01-08T07:01:21.159Z,0
2018-01-08T07:02:01.684Z,0
2018-01-08T07:02:42.248Z,0
2018-01-08T07:03:22.783Z,0
2018-01-08T07:04:03.388Z,0
2018-01-08T07:04:43.878Z,0
2018-01-08T07:05:24.426Z,0
2018-01-08T07:06:05.034Z,0
2018-01-08T07:06:45.639Z,0
2018-01-08T07:07:26.216Z,0
2018-01-08T07:08:06.686Z,0
2018-01-08T07:08:47.274Z,0
2018-01-08T07:09:27.767Z,0
2018-01-08T07:10:08.306Z,0
2018-01-08T07:10:48.897Z,0
2018-01-08T07:11:29.475Z,0
2018-01-08T07:12:09.994Z,0
2018-01-08T07:12:50.652Z,0
2018-01-08T07:13:31.169Z,0
2018-01-08T07:14:11.727Z,0
2018-01-08T07:14:52.253Z,0
2018-01-08T07:15:32.760Z,0
2018-01-08T07:16:13.330Z,0
2018-01-08T07:16:53.880Z,0
2018-01-08T07:17:34.361Z,0
2018-01-08T07:18:14.856Z,0
2018-01-08T07:18:55.368Z,0
2018-01-08T07:19:35.936Z,0
2018-01-08T07:20:16.728Z,0
2018-01-08T07:20:57.339Z,0
2018-01-08T07:21:37.961Z,0
2018-01-08T07:22:18.465Z,0
2018-01-08T07:22:59.008Z,0
2018-01-08T07:23:39.643Z,0
2018-01-08T07:24:20.150Z,0
2018-01-08T07:25:00.722Z,0
2018-01-08T07:25:41.219Z,0
2018-01-08T07:26:21.779Z,0
2018-01-08T07:27:02.359Z,0
2018-01-08T07:27:42.884Z,0
2018-01-08T07:28:23.383Z,0
2018-01-08T07:29:03.931Z,0
2018-01-08T07:29:44.532Z,0
2018-01-08T07:30:25.030Z,0
2018-01-08T07:31:05.730Z,0
2018-01-08T07:31:46.291Z,0
2018-01-08T07:32:26.881Z,0
2018-01-08T07:33:07.397Z,0
2018-01-08T07:33:47.935Z,0
2018-01-08T07:34:28.480Z,0
2018-01-08T07:35:08.965Z,0
2018-01-08T07:35:49.673Z,0
2018-01-08T07:36:30.203Z,0
2018-01-08T07:37:10.727Z,0
2018-01-08T07:37:51.231Z,0
2018-01-08T07:38:31.783Z,0
2018-01-08T07:39:12.339Z,0
2018-01-08T07:39:52.837Z,0
2018-01-08T07:40:33.375Z,0
2018-01-08T07:41:14.186Z,0
2018-01-08T07:41:54.788Z,0
2018-01-08T07:42:35.357Z,0
2018-01-08T07:43:15.869Z,0
2018-01-08T07:43:56.469Z,0
2018-01-08T07:44:37.010Z,0
2018-01-08T07:45:17.656Z,0
2018-01-08T07:45:58.182Z,0
2018-01-08T07:46:38.707Z,0
2018-01-08T07:47:19.182Z,0
2018-01-08T07:47:59.755Z,0
2018-01-08T07:48:40.284Z,0
2018-01-08T07:49:20.805Z,5
2018-01-08T07:50:01.384Z,5
2018-01-08T07:50:41.938Z,5
2018-01-08T07:51:22.460Z,5
2018-01-08T07:52:02.992Z,5
2018-01-08T07:52:43.521Z,5
2018-01-08T07:53:23.978Z,5
2018-01-08T07:54:04.501Z,5
2018-01-08T07:54:45.069Z,5
2018-01-08T07:55:25.633Z,5
2018-01-08T07:56:06.097Z,5
2018-01-08T07:56:46.664Z,5
2018-01-08T07:57:27.215Z,5
2018-01-08T07:58:07.795Z,5
2018-01-08T07:58:48.317Z,5
2018-01-08T07:59:28.830Z,5
2018-01-08T08:00:09.412Z,5
2018-01-08T08:00:49.903Z,5
2018-01-08T08:01:30.436Z,5
2018-01-08T08:02:10.963Z,5
2018-01-08T08:02:51.499Z,5
2018-01-08T08:03:32.022Z,5
2018-01-08T08:04:12.555Z,5
2018-01-08T08:04:53.118Z,5
2018-01-08T08:05:33.617Z,5
2018-01-08T08:06:14.148Z,5
2018-01-08T08:06:54.705Z,5
2018-01-08T08:07:35.225Z,5
2018-01-08T08:08:15.800Z,5
2018-01-08T08:08:56.332Z,5
2018-01-08T08:09:36.859Z,5
2018-01-08T08:10:17.412Z,5
2018-01-08T08:10:57.905Z,10
2018-01-08T08:11:38.505Z,10
2018-01-08T08:12:19.022Z,10
2018-01-08T08:12:59.586Z,10
2018-01-08T08:13:40.109Z,10
2018-01-08T08:14:20.614Z,10
2018-01-08T08:15:01.182Z,10
2018-01-08T08:15:41.686Z,10
2018-01-08T08:16:22.214Z,10
2018-01-08T08:17:02.743Z,10
2018-01-08T08:17:43.237Z,10
2018-01-08T08:18:23.841Z,10
2018-01-08T08:19:04.314Z,10
2018-01-08T08:19:44.836Z,10
2018-01-08T08:20:25.351Z,10
2018-01-08T08:21:05.895Z,10
2018-01-08T08:21:46.402Z,10
2018-01-08T08:22:27.917Z,10
2018-01-08T08:23:07.492Z,10
2018-01-08T08:23:47.999Z,10
2018-01-08T08:24:28.498Z,15
2018-01-08T08:25:09.091Z,10
2018-01-08T08:25:49.663Z,10
2018-01-08T08:26:30.224Z,15
2018-01-08T08:27:10.785Z,15
2018-01-08T08:27:51.260Z,15
2018-01-08T08:28:31.793Z,15
2018-01-08T08:29:12.338Z,15
2018-01-08T08:29:52.870Z,15
2018-01-08T08:30:33.405Z,15
2018-01-08T08:31:13.951Z,15
2018-01-08T08:31:54.489Z,15
2018-01-08T08:32:35.035Z,15
2018-01-08T08:33:15.634Z,15
2018-01-08T08:33:56.191Z,15
2018-01-08T08:34:36.706Z,15
2018-01-08T08:35:17.290Z,15
2018-01-08T08:35:57.806Z,15
2018-01-08T08:36:38.317Z,15
2018-01-08T08:37:18.901Z,15
2018-01-08T08:37:59.434Z,20
2018-01-08T08:38:40.153Z,20
2018-01-08T08:39:20.654Z,20
2018-01-08T08:40:01.213Z,20
2018-01-08T08:40:41.698Z,20
2018-01-08T08:41:22.281Z,20
2018-01-08T08:42:02.829Z,20
2018-01-08T08:42:43.331Z,20
2018-01-08T08:43:23.928Z,20
2018-01-08T08:44:04.471Z,20
2018-01-08T08:44:44.964Z,20
2018-01-08T08:45:25.489Z,20
2018-01-08T08:46:06.049Z,20
2018-01-08T08:46:46.579Z,20
2018-01-08T08:47:27.137Z,20
2018-01-08T08:48:07.630Z,20
2018-01-08T08:48:48.305Z,20
2018-01-08T08:49:28.820Z,20
2018-01-08T08:50:09.436Z,20
2018-01-08T08:50:50.860Z,25
2018-01-08T08:51:31.401Z,25
2018-01-08T08:52:11.906Z,25
2018-01-08T08:52:52.476Z,25
2018-01-08T08:53:33.084Z,25
2018-01-08T08:54:13.616Z,25
2018-01-08T08:54:54.081Z,25
2018-01-08T08:55:34.646Z,25
2018-01-08T08:56:15.308Z,25
2018-01-08T08:56:55.865Z,25
2018-01-08T08:57:36.395Z,25
2018-01-08T08:58:18.780Z,25
2018-01-08T08:58:57.473Z,25
2018-01-08T08:59:38.003Z,25
2018-01-08T09:00:18.636Z,25
2018-01-08T09:00:59.233Z,25
2018-01-08T09:01:39.730Z,25
2018-01-08T09:02:20.304Z,25
2018-01-08T09:03:00.868Z,25
2018-01-08T09:03:41.377Z,25
2018-01-08T09:04:21.957Z,25
2018-01-08T09:05:02.473Z,25
2018-01-08T09:05:43.024Z,25
2018-01-08T09:06:23.528Z,30
2018-01-08T09:07:04.073Z,30
2018-01-08T09:07:44.603Z,30
2018-01-08T09:08:25.153Z,30
2018-01-08T09:09:05.703Z,30
2018-01-08T09:09:46.251Z,30
2018-01-08T09:10:26.837Z,30
2018-01-08T09:11:07.370Z,30
2018-01-08T09:11:47.909Z,30
2018-01-08T09:12:28.699Z,30
2018-01-08T09:13:09.230Z,30
2018-01-08T09:13:49.735Z,30
2018-01-08T09:14:30.236Z,30
2018-01-08T09:15:10.819Z,30
2018-01-08T09:15:51.365Z,35
2018-01-08T09:16:32.077Z,35
2018-01-08T09:17:12.667Z,35
2018-01-08T09:17:53.160Z,35
2018-01-08T09:18:33.695Z,35
2018-01-08T09:19:14.201Z,35
2018-01-08T09:19:54.735Z,35
2018-01-08T09:20:35.288Z,35
2018-01-08T09:21:15.780Z,35
2018-01-08T09:21:56.304Z,35
2018-01-08T09:22:36.840Z,35
2018-01-08T09:23:17.434Z,35
2018-01-08T09:23:57.947Z,35
2018-01-08T09:24:38.440Z,35
2018-01-08T09:25:18.979Z,35
2018-01-08T09:25:59.513Z,35
2018-01-08T09:26:40.011Z,35
2018-01-08T09:27:20.559Z,35
2018-01-08T09:28:01.154Z,35
2018-01-08T09:28:41.674Z,35
2018-01-08T09:29:22.239Z,35
2018-01-08T09:30:02.884Z,35
2018-01-08T09:30:43.467Z,35
2018-01-08T09:31:23.926Z,40
2018-01-08T09:32:04.435Z,40
2018-01-08T09:32:44.969Z,40
2018-01-08T09:33:25.572Z,40
2018-01-08T09:34:06.062Z,40
2018-01-08T09:34:46.598Z,40
2018-01-08T09:35:27.105Z,40
2018-01-08T09:36:07.616Z,45
2018-01-08T09:36:48.193Z,45
2018-01-08T09:37:28.736Z,45
2018-01-08T09:38:09.227Z,45
2018-01-08T09:38:49.841Z,45
2018-01-08T09:39:30.428Z,45
2018-01-08T09:40:10.916Z,45
2018-01-08T09:40:51.464Z,45
2018-01-08T09:41:31.961Z,45
2018-01-08T09:42:12.514Z,45
2018-01-08T09:42:53.040Z,45
2018-01-08T09:43:33.676Z,50
2018-01-08T09:44:14.150Z,50
2018-01-08T09:44:54.710Z,50
2018-01-08T09:45:35.190Z,50
2018-01-08T09:46:15.847Z,50
2018-01-08T09:46:56.361Z,50
2018-01-08T09:47:36.905Z,50
2018-01-08T09:48:17.482Z,50
2018-01-08T09:48:58.004Z,50
2018-01-08T09:49:38.540Z,50
2018-01-08T09:50:19.086Z,55
2018-01-08T09:50:59.678Z,55
2018-01-08T09:51:40.190Z,55
2018-01-08T09:52:20.689Z,55
2018-01-08T09:53:01.264Z,55
2018-01-08T09:53:41.789Z,55
2018-01-08T09:54:22.392Z,60
2018-01-08T09:55:02.930Z,65
2018-01-08T09:55:43.511Z,65
2018-01-08T09:56:24.038Z,60
2018-01-08T09:57:04.585Z,65
2018-01-08T09:57:45.069Z,65
2018-01-08T09:58:25.596Z,70
2018-01-08T09:59:06.155Z,70
2018-01-08T09:59:46.707Z,70
2018-01-08T10:00:27.247Z,70
2018-01-08T10:01:07.787Z,75
2018-01-08T10:01:48.320Z,75
2018-01-08T10:02:28.834Z,80
2018-01-08T10:03:09.390Z,85
2018-01-08T10:03:49.924Z,85
2018-01-08T10:04:30.493Z,80
2018-01-08T10:05:11.017Z,75
2018-01-08T10:05:51.558Z,70
2018-01-08T10:06:32.091Z,70
2018-01-08T10:07:12.665Z,65
2018-01-08T10:07:53.194Z,65
2018-01-08T10:08:33.786Z,70
2018-01-08T10:09:14.310Z,75
2018-01-08T10:09:54.838Z,75
2018-01-08T10:10:35.354Z,75
2018-01-08T10:11:15.890Z,70
2018-01-08T10:11:56.449Z,70
2018-01-08T10:12:37.042Z,70
2018-01-08T10:13:17.552Z,70
2018-01-08T10:13:58.104Z,70
2018-01-08T10:14:38.676Z,70
2018-01-08T10:15:19.190Z,65
2018-01-08T10:15:59.737Z,60
2018-01-08T10:16:40.280Z,60
2018-01-08T10:17:20.853Z,60
2018-01-08T10:18:01.396Z,60
2018-01-08T10:18:41.955Z,60
2018-01-08T10:19:22.481Z,55
2018-01-08T10:20:03.039Z,55
2018-01-08T10:20:43.567Z,55
2018-01-08T10:21:24.162Z,55
2018-01-08T10:22:04.722Z,55
2018-01-08T10:22:45.227Z,55
2018-01-08T10:23:25.848Z,55
2018-01-08T10:24:06.562Z,55
2018-01-08T10:24:47.211Z,55
2018-01-08T10:25:27.690Z,50
2018-01-08T10:26:08.251Z,50
2018-01-08T10:26:48.925Z,50
2018-01-08T10:27:29.443Z,50
2018-01-08T10:28:10.012Z,50
2018-01-08T10:28:50.609Z,45
2018-01-08T10:29:31.123Z,45
2018-01-08T10:30:11.624Z,45
2018-01-08T10:30:52.179Z,45
2018-01-08T10:31:32.708Z,40
2018-01-08T10:32:13.307Z,40
2018-01-08T10:32:53.826Z,40
2018-01-08T10:33:34.557Z,40
2018-01-08T10:34:15.088Z,35
2018-01-08T10:34:55.637Z,35
2018-01-08T10:35:36.191Z,35
2018-01-08T10:36:16.798Z,35
2018-01-08T10:36:57.347Z,35
2018-01-08T10:37:37.883Z,35
2018-01-08T10:38:18.438Z,35
2018-01-08T10:38:58.949Z,35
2018-01-08T10:39:39.505Z,35
2018-01-08T10:40:20.059Z,35
2018-01-08T10:41:00.564Z,35
2018-01-08T10:41:41.201Z,35
2018-01-08T10:42:21.715Z,35
2018-01-08T10:43:02.265Z,35
2018-01-08T10:43:42.803Z,35
2018-01-08T10:44:23.345Z,35
2018-01-08T10:45:03.878Z,35
2018-01-08T10:45:44.443Z,35
2018-01-08T10:46:24.989Z,35
2018-01-08T10:47:05.472Z,35
2018-01-08T10:47:46.081Z,35
2018-01-08T10:48:26.658Z,35
2018-01-08T10:49:07.212Z,35
2018-01-08T10:49:47.792Z,40
2018-01-08T10:50:28.299Z,40
2018-01-08T10:51:08.832Z,35
2018-01-08T10:51:49.393Z,40
2018-01-08T10:52:29.872Z,40
2018-01-08T10:53:10.376Z,40
2018-01-08T10:53:51.003Z,45
2018-01-08T10:54:31.551Z,45
2018-01-08T10:55:12.156Z,45
2018-01-08T10:55:52.663Z,45
2018-01-08T10:56:33.183Z,45
2018-01-08T10:57:13.740Z,50
2018-01-08T10:57:54.261Z,50
2018-01-08T10:58:34.867Z,50
2018-01-08T10:59:15.451Z,50
2018-01-08T10:59:55.927Z,50
2018-01-08T11:00:36.487Z,50
2018-01-08T11:01:16.997Z,50
2018-01-08T11:01:57.557Z,55
2018-01-08T11:02:38.082Z,55
2018-01-08T11:03:18.641Z,55
2018-01-08T11:03:59.445Z,55
2018-01-08T11:04:39.999Z,55
2018-01-08T11:05:20.539Z,55
2018-01-08T11:06:01.139Z,55
2018-01-08T11:06:41.647Z,55
2018-01-08T11:07:22.196Z,55
2018-01-08T11:08:02.784Z,55
2018-01-08T11:08:43.298Z,55
2018-01-08T11:09:23.815Z,55
2018-01-08T11:10:04.362Z,55
2018-01-08T11:10:44.968Z,55
2018-01-08T11:11:25.438Z,55
2018-01-08T11:12:06.033Z,55
2018-01-08T11:12:46.577Z,55
2018-01-08T11:13:27.103Z,55
2018-01-08T11:14:07.647Z,55
2018-01-08T11:14:48.164Z,55
2018-01-08T11:15:28.727Z,55
2018-01-08T11:16:09.252Z,60
2018-01-08T11:16:49.865Z,65
2018-01-08T11:17:30.392Z,65
2018-01-08T11:18:10.960Z,65
2018-01-08T11:18:51.553Z,65
2018-01-08T11:19:32.088Z,70
2018-01-08T11:20:12.626Z,70
2018-01-08T11:20:53.160Z,75
2018-01-08T11:21:33.786Z,80
2018-01-08T11:22:14.339Z,85
2018-01-08T11:22:54.876Z,85
2018-01-08T11:23:35.429Z,85
2018-01-08T11:24:15.912Z,85
2018-01-08T11:24:56.454Z,85
2018-01-08T11:25:37.035Z,85
2018-01-08T11:26:17.649Z,85
2018-01-08T11:26:58.262Z,85
2018-01-08T11:27:38.750Z,85
2018-01-08T11:28:19.263Z,85
2018-01-08T11:28:59.850Z,85
2018-01-08T11:29:40.325Z,85
2018-01-08T11:30:20.912Z,85
2018-01-08T11:31:01.421Z,85
2018-01-08T11:31:41.943Z,85
2018-01-08T11:32:22.574Z,80
2018-01-08T11:33:03.052Z,75
2018-01-08T11:33:43.666Z,70
2018-01-08T11:34:24.182Z,70
2018-01-08T11:35:04.736Z,65
2018-01-08T11:35:46.399Z,65
2018-01-08T11:36:26.952Z,65
2018-01-08T11:37:09.745Z,65
2018-01-08T11:37:50.385Z,70
2018-01-08T11:38:31.224Z,75
2018-01-08T11:39:11.619Z,80
2018-01-08T11:39:52.396Z,80
2018-01-08T11:40:33.095Z,75
2018-01-08T11:41:13.663Z,75
2018-01-08T11:41:54.254Z,70
2018-01-08T11:42:34.807Z,65
2018-01-08T11:43:18.217Z,70
2018-01-08T11:43:58.707Z,70
2018-01-08T11:44:39.281Z,70
2018-01-08T11:45:19.841Z,70
2018-01-08T11:46:00.341Z,70
2018-01-08T11:46:40.898Z,70
2018-01-08T11:47:21.422Z,65
2018-01-08T11:48:02.314Z,65
2018-01-08T11:48:42.881Z,65
2018-01-08T11:49:23.426Z,65
2018-01-08T11:50:03.932Z,65
2018-01-08T11:50:44.577Z,65
2018-01-08T11:51:25.176Z,60
2018-01-08T11:52:05.723Z,60
2018-01-08T11:52:46.267Z,65
2018-01-08T11:53:26.814Z,70
2018-01-08T11:54:07.334Z,70
2018-01-08T11:54:47.946Z,70
2018-01-08T11:55:28.449Z,65
2018-01-08T11:56:08.981Z,65
2018-01-08T11:56:49.602Z,60
2018-01-08T11:57:30.060Z,55
2018-01-08T11:58:10.623Z,55
2018-01-08T11:58:51.163Z,55
2018-01-08T11:59:31.795Z,55
2018-01-08T12:00:12.314Z,55
2018-01-08T12:00:52.855Z,50
2018-01-08T12:01:33.422Z,50
2018-01-08T12:02:13.979Z,50
2018-01-08T12:02:54.507Z,50
2018-01-08T12:03:35.077Z,45
2018-01-08T12:04:15.609Z,45
2018-01-08T12:04:56.168Z,45
2018-01-08T12:05:36.678Z,45
2018-01-08T12:06:17.254Z,45
2018-01-08T12:06:57.807Z,45
2018-01-08T12:07:38.567Z,45
2018-01-08T12:08:19.109Z,45
2018-01-08T12:08:59.632Z,45
2018-01-08T12:09:40.135Z,45
2018-01-08T12:10:20.684Z,45
2018-01-08T12:11:01.398Z,40
2018-01-08T12:11:41.957Z,40
2018-01-08T12:12:22.539Z,40
2018-01-08T12:13:03.022Z,40
2018-01-08T12:13:43.585Z,40
2018-01-08T12:14:24.097Z,40
2018-01-08T12:15:04.643Z,40
2018-01-08T12:15:45.250Z,40
2018-01-08T12:16:25.752Z,40
2018-01-08T12:17:06.357Z,40
2018-01-08T12:17:46.851Z,40
2018-01-08T12:18:27.364Z,40
2018-01-08T12:19:07.906Z,45
2018-01-08T12:19:48.504Z,45
2018-01-08T12:20:29.028Z,45
2018-01-08T12:21:09.557Z,40
2018-01-08T12:21:50.604Z,40
2018-01-08T12:22:31.150Z,45
2018-01-08T12:23:11.713Z,45
2018-01-08T12:23:52.251Z,40
2018-01-08T12:24:32.795Z,40
2018-01-08T12:25:13.368Z,40
2018-01-08T12:25:53.868Z,40
2018-01-08T12:26:34.561Z,40
2018-01-08T12:27:15.112Z,40
2018-01-08T12:27:55.725Z,45
2018-01-08T12:28:36.225Z,40
2018-01-08T12:29:16.799Z,40
2018-01-08T12:29:57.345Z,45
2018-01-08T12:30:37.909Z,45
2018-01-08T12:31:18.624Z,45
2018-01-08T12:31:59.188Z,40
2018-01-08T12:32:39.739Z,40
2018-01-08T12:33:20.247Z,40
2018-01-08T12:34:00.797Z,40
2018-01-08T12:34:41.370Z,45
2018-01-08T12:35:21.920Z,45
2018-01-08T12:36:02.549Z,45
2018-01-08T12:36:43.043Z,45
2018-01-08T12:37:23.620Z,45
2018-01-08T12:38:04.153Z,45
2018-01-08T12:38:44.708Z,45
2018-01-08T12:39:25.313Z,45
2018-01-08T12:40:05.832Z,45
2018-01-08T12:40:46.359Z,45
2018-01-08T12:41:26.898Z,40
2018-01-08T12:42:07.391Z,40
2018-01-08T12:42:49.229Z,40
2018-01-08T12:43:29.894Z,40
2018-01-08T12:44:10.369Z,40
2018-01-08T12:44:50.890Z,40
2018-01-08T12:45:31.415Z,40
2018-01-08T12:46:11.993Z,40
2018-01-08T12:46:52.555Z,45
2018-01-08T12:47:33.050Z,45
2018-01-08T12:48:13.613Z,45
2018-01-08T12:48:54.093Z,50
2018-01-08T12:49:34.639Z,50